Hlavní strana
METAR-TAF:

METAR-TAF

Letiště :

Letiště Brno-Tuřany

Brno, Česká republika

zeměpisná šířka: 49-09N, zeměpisná délka: 016-42E, výška: 241 m

Aktuální stav počasí

Zpráva byla vytvořena před 40 minutami, v 22:00 UTC
Bezvětří
Teplota 5°C
Vlhkost vzduchu 48%
Tlak 1028 hPa
Viditelnost 10 km a více
Žádná oblačnost pod 1500 m, nevyskytují se cumulonimby.

METAR: LKTB 042200Z 00000KT CAVOK 05/M05 Q1028 NOSIG

Čas: 00:40 (22:40 UTC)

Předpověď počasí

Zpráva byla vytvořena před 5 hodinami a 40 minutami, v 17:00 UTC
Předpověď platná od 04 v 18 UTC do 06 v 00 UTC
Východoseverovýchodní vítr 8 kt
Viditelnost 10 km a více
Žádná oblačnost pod 1500 m, nevyskytují se cumulonimby.
Změna
od 05 v 12 UTC do 05 v 14 UTC
Východojihovýchodní vítr 10 kt

TAF: LKTB 041700Z 0418/0600 07008KT CAVOK BECMG 0512/0514 12010KT

Stav a předpovědi počasí z více než 4 000 letišť (zprávy METAR a TAF).

Červené a žluté tečky na mapě představují dostupné meteorologické stanice.

Když kurzor umístíte na tečku, zobrazí se název stanice.

Pak kliknutím zobrazíte stav a předpověď počasí.

Chcete-li změnit mapu, kliknutím na zelené tlačítko se znaménkem +mapu přiblížíte, kliknutím na zelené tlačítko se znaménkem – mapu oddálíte a kliknutím na zelené šipky přejdete na sousední mapy.


METAR-TAF: